Time;durP1;ratioP1;P1;durP2;ratioP2;P2;SDS_P1;SDS_P2;PMS_P1;PMS_P2;Temp;Humidity;BMP_temperature;BMP_pressure;BME280_temperature;BME280_humidity;BME280_pressure;Samples;Min_cycle;Max_cycle;Signal;HPM_P1;HPM_P2
2022/01/07 00:00:16;;;;;;;28.15;17.88;;;-1.60;99.90;;;;;;5011542;28;20072;-74
2022/01/07 00:02:46;;;;;;;25.58;16.83;;;-1.60;99.90;;;;;;4984998;28;20085;-74
2022/01/07 00:05:12;;;;;;;21.67;15.95;;;-1.50;99.90;;;;;;4982229;28;20030;-74
2022/01/07 00:07:39;;;;;;;26.35;18.42;;;-1.50;99.90;;;;;;5008821;28;20049;-74
2022/01/07 00:10:07;;;;;;;25.92;16.90;;;-1.60;99.90;;;;;;4993287;28;20022;-73
2022/01/07 00:12:33;;;;;;;23.67;15.52;;;-1.60;99.90;;;;;;4993320;28;20499;-74
2022/01/07 00:14:59;;;;;;;30.17;15.88;;;-1.60;99.90;;;;;;5003507;28;20061;-76
2022/01/07 00:17:24;;;;;;;20.70;15.80;;;-1.60;99.90;;;;;;5008864;28;20030;-75
2022/01/07 00:19:50;;;;;;;25.50;16.05;;;-1.50;99.90;;;;;;4993678;28;20069;-75
2022/01/07 00:22:15;;;;;;;26.88;17.15;;;-1.50;99.90;;;;;;5015003;28;20033;-74
2022/01/07 00:24:41;;;;;;;31.33;19.90;;;-1.60;99.90;;;;;;5006347;28;20041;-74
2022/01/07 00:27:07;;;;;;;27.20;17.20;;;-1.50;99.90;;;;;;4991265;28;20455;-75
2022/01/07 00:29:32;;;;;;;24.17;15.73;;;-1.60;99.90;;;;;;4993976;28;20024;-75
2022/01/07 00:31:58;;;;;;;24.23;15.90;;;-1.60;99.90;;;;;;5003409;28;20158;-73
2022/01/07 00:34:23;;;;;;;26.15;16.67;;;-1.60;99.90;;;;;;4977484;28;20026;-73
2022/01/07 00:36:49;;;;;;;26.58;17.08;;;-1.70;99.90;;;;;;4987007;28;20034;-73
2022/01/07 00:39:14;;;;;;;26.20;15.95;;;-1.80;99.90;;;;;;4971413;28;20026;-76
2022/01/07 00:41:40;;;;;;;26.20;15.95;;;-1.80;99.90;;;;;;4983757;28;20041;-75
2022/01/07 00:44:06;;;;;;;26.52;16.10;;;-1.80;99.90;;;;;;4991934;28;20488;-74
2022/01/07 00:46:31;;;;;;;26.90;16.63;;;-1.70;99.90;;;;;;4995036;28;20037;-74
2022/01/07 00:48:57;;;;;;;25.25;16.77;;;-1.70;99.90;;;;;;4981863;28;20046;-73
2022/01/07 00:51:22;;;;;;;24.67;15.65;;;-1.60;99.90;;;;;;4987337;28;20019;-74
2022/01/07 00:53:48;;;;;;;27.50;15.93;;;-1.60;99.90;;;;;;4988616;28;20023;-73
2022/01/07 00:56:13;;;;;;;31.85;17.63;;;-1.50;99.90;;;;;;4982784;28;20041;-75
2022/01/07 00:58:39;;;;;;;29.75;16.33;;;-1.60;99.90;;;;;;4981839;28;20043;-75
2022/01/07 01:01:05;;;;;;;23.42;15.70;;;-1.60;99.90;;;;;;5002379;28;20072;-75
2022/01/07 01:03:31;;;;;;;30.95;16.52;;;-1.70;99.90;;;;;;4981352;28;20054;-75
2022/01/07 01:05:59;;;;;;;31.80;17.05;;;-1.80;99.90;;;;;;4982661;28;20487;-75
2022/01/07 01:08:28;;;;;;;29.50;16.00;;;-1.90;99.90;;;;;;4980937;28;20072;-75
2022/01/07 01:10:54;;;;;;;23.58;15.52;;;-1.90;99.90;;;;;;4986703;28;20041;-75
2022/01/07 01:13:20;;;;;;;24.88;15.43;;;-2.00;99.90;;;;;;4970822;28;20169;-75
2022/01/07 01:15:46;;;;;;;29.85;16.77;;;-2.00;99.90;;;;;;4983157;28;20492;-76
2022/01/07 01:18:12;;;;;;;24.58;15.43;;;-1.90;99.90;;;;;;4981180;28;20392;-75
2022/01/07 01:20:37;;;;;;;27.58;16.35;;;-1.80;99.90;;;;;;4986458;28;20027;-75
2022/01/07 01:23:03;;;;;;;27.08;16.63;;;-1.80;99.90;;;;;;4987767;28;20165;-74
2022/01/07 01:25:29;;;;;;;29.08;17.63;;;-1.70;99.90;;;;;;4965462;28;20027;-75
2022/01/07 01:27:55;;;;;;;23.45;16.58;;;-1.70;99.90;;;;;;4981149;28;20101;-76
2022/01/07 01:30:21;;;;;;;26.70;16.17;;;-1.70;99.90;;;;;;4986118;28;20081;-76
2022/01/07 01:32:48;;;;;;;26.52;17.73;;;-1.80;99.90;;;;;;4970466;28;20022;-76
2022/01/07 01:35:15;;;;;;;28.20;18.00;;;-1.70;99.90;;;;;;4965706;28;20454;-76
2022/01/07 01:37:42;;;;;;;29.15;17.80;;;-1.70;99.90;;;;;;4963714;28;20069;-74
2022/01/07 01:40:08;;;;;;;28.55;17.42;;;-1.70;99.90;;;;;;4985120;28;20035;-74
2022/01/07 01:42:34;;;;;;;31.10;17.55;;;-1.70;99.90;;;;;;4987513;28;20026;-74
2022/01/07 01:45:00;;;;;;;31.42;18.80;;;-1.70;99.90;;;;;;4975639;28;20031;-75
2022/01/07 01:47:25;;;;;;;33.28;18.60;;;-1.70;99.90;;;;;;4991864;28;20037;-76
2022/01/07 01:49:51;;;;;;;30.33;18.75;;;-1.60;99.90;;;;;;4982865;28;20540;-76
2022/01/07 01:52:16;;;;;;;30.33;17.98;;;-1.50;99.90;;;;;;4980749;28;20378;-76
2022/01/07 01:54:45;;;;;;;35.10;19.52;;;-1.40;99.90;;;;;;4968114;28;20054;-76
2022/01/07 01:57:11;;;;;;;28.75;18.45;;;-1.40;99.90;;;;;;5002342;28;20066;-74
2022/01/07 01:59:37;;;;;;;30.45;19.00;;;-1.40;99.90;;;;;;4985481;28;20031;-74
2022/01/07 02:02:03;;;;;;;28.05;18.20;;;-1.40;99.90;;;;;;4969933;28;20033;-74
2022/01/07 02:04:29;;;;;;;29.15;19.50;;;-1.40;99.90;;;;;;4982331;28;20547;-73
2022/01/07 02:06:56;;;;;;;28.38;17.40;;;-1.40;99.90;;;;;;4961336;28;20500;-73
2022/01/07 02:09:29;;;;;;;32.28;18.88;;;-1.40;99.90;;;;;;4982315;28;20388;-75
2022/01/07 02:11:55;;;;;;;35.42;19.05;;;-1.40;99.90;;;;;;4963095;28;20046;-76
2022/01/07 02:14:21;;;;;;;30.85;19.42;;;-1.40;99.90;;;;;;4966856;28;20129;-76
2022/01/07 02:16:46;;;;;;;30.60;18.88;;;-1.50;99.90;;;;;;4986873;28;20097;-75
2022/01/07 02:19:12;;;;;;;32.53;19.27;;;-1.50;99.90;;;;;;4964696;28;20492;-76
2022/01/07 02:21:38;;;;;;;33.13;19.77;;;-1.50;99.90;;;;;;4990581;28;20117;-76
2022/01/07 02:24:05;;;;;;;34.20;19.85;;;-1.50;99.90;;;;;;4965364;28;20400;-76
2022/01/07 02:26:34;;;;;;;27.88;18.83;;;-1.50;99.90;;;;;;5003740;28;20022;-75
2022/01/07 02:29:00;;;;;;;29.10;18.20;;;-1.50;99.90;;;;;;4983444;28;20031;-76
2022/01/07 02:31:26;;;;;;;32.10;19.45;;;-1.60;99.90;;;;;;5006315;28;20032;-77
2022/01/07 02:33:53;;;;;;;31.90;20.60;;;-1.60;99.90;;;;;;5002298;28;20033;-76
2022/01/07 02:36:18;;;;;;;31.98;20.25;;;-1.60;99.90;;;;;;4976534;28;20077;-76
2022/01/07 02:38:44;;;;;;;30.55;18.98;;;-1.60;99.90;;;;;;4982711;28;20034;-74
2022/01/07 02:41:10;;;;;;;34.65;19.40;;;-1.70;99.90;;;;;;4977830;28;20026;-74
2022/01/07 02:43:35;;;;;;;29.40;19.48;;;-1.70;99.90;;;;;;4978720;28;20027;-73
2022/01/07 02:46:01;;;;;;;31.38;18.08;;;-1.60;99.90;;;;;;4989860;28;20076;-73
2022/01/07 02:48:27;;;;;;;27.08;18.02;;;-1.70;99.90;;;;;;4985341;28;20021;-73
2022/01/07 02:50:52;;;;;;;29.10;18.77;;;-1.70;99.90;;;;;;4992328;28;20027;-74
2022/01/07 02:53:18;;;;;;;33.35;18.92;;;-1.60;99.90;;;;;;4983339;28;20105;-75
2022/01/07 02:55:44;;;;;;;29.55;18.80;;;-1.60;99.90;;;;;;5002244;28;20346;-74
2022/01/07 02:58:09;;;;;;;29.42;19.00;;;-1.60;99.90;;;;;;4983126;28;20101;-76
2022/01/07 03:00:36;;;;;;;30.58;18.98;;;-1.60;99.90;;;;;;4988198;28;20030;-75
2022/01/07 03:03:04;;;;;;;30.30;19.00;;;-1.60;99.90;;;;;;4965306;28;20030;-74
2022/01/07 03:05:29;;;;;;;26.92;18.65;;;-1.60;99.90;;;;;;4989509;28;20030;-75
2022/01/07 03:07:55;;;;;;;27.55;18.40;;;-1.60;99.90;;;;;;4975107;28;20106;-76
2022/01/07 03:10:26;;;;;;;27.27;17.83;;;-1.60;99.90;;;;;;5005691;28;20423;-75
2022/01/07 03:12:53;;;;;;;29.33;18.33;;;-1.60;99.90;;;;;;4975495;28;20076;-74
2022/01/07 03:15:19;;;;;;;29.00;19.48;;;-1.60;99.90;;;;;;4974903;28;20053;-75
2022/01/07 03:17:44;;;;;;;29.90;18.08;;;-1.60;99.90;;;;;;5003755;28;20064;-73
2022/01/07 03:20:14;;;;;;;28.70;18.67;;;-1.70;99.90;;;;;;4998962;28;20419;-73
2022/01/07 03:22:41;;;;;;;34.70;18.60;;;-1.60;99.90;;;;;;5000692;28;20026;-73
2022/01/07 03:25:08;;;;;;;30.52;18.65;;;-1.60;99.90;;;;;;5005553;28;20026;-73
2022/01/07 03:27:33;;;;;;;30.88;18.80;;;-1.60;99.90;;;;;;4992185;28;20113;-73
2022/01/07 03:29:59;;;;;;;25.42;18.17;;;-1.60;99.90;;;;;;4962354;28;20130;-72
2022/01/07 03:32:25;;;;;;;28.13;18.27;;;-1.60;99.90;;;;;;4996671;28;20420;-73
2022/01/07 03:34:54;;;;;;;32.58;18.40;;;-1.60;99.90;;;;;;4983154;28;20495;-74
2022/01/07 03:37:19;;;;;;;25.25;18.08;;;-1.50;99.90;;;;;;4996303;28;20031;-74
2022/01/07 03:39:45;;;;;;;29.08;18.27;;;-1.50;99.90;;;;;;4971103;28;20096;-74
2022/01/07 03:42:11;;;;;;;27.25;18.70;;;-1.50;99.90;;;;;;5003972;28;20100;-73
2022/01/07 03:44:37;;;;;;;30.48;19.27;;;-1.50;99.90;;;;;;5001281;28;20026;-74
2022/01/07 03:47:03;;;;;;;27.70;18.85;;;-1.50;99.90;;;;;;4998209;28;20084;-73
2022/01/07 03:49:28;;;;;;;31.67;19.90;;;-1.50;99.90;;;;;;5015946;28;20088;-74
2022/01/07 03:51:54;;;;;;;31.13;18.52;;;-1.50;99.90;;;;;;4986501;28;20030;-75
2022/01/07 03:54:19;;;;;;;31.35;18.80;;;-1.50;99.90;;;;;;4983178;28;20041;-74
2022/01/07 03:56:45;;;;;;;31.23;19.02;;;-1.50;99.90;;;;;;4967053;28;20421;-74
2022/01/07 03:59:10;;;;;;;31.52;19.00;;;-1.50;99.90;;;;;;4989623;28;20039;-74
2022/01/07 04:01:36;;;;;;;29.75;19.02;;;-1.50;99.90;;;;;;4987725;28;20034;-74
2022/01/07 04:04:01;;;;;;;30.35;19.02;;;-1.50;99.90;;;;;;4960591;28;20432;-74
2022/01/07 04:06:27;;;;;;;31.80;19.23;;;-1.50;99.90;;;;;;4987557;28;20424;-74
2022/01/07 04:08:52;;;;;;;32.88;20.20;;;-1.60;99.90;;;;;;4982769;28;20027;-74
2022/01/07 04:11:18;;;;;;;32.17;19.42;;;-1.60;99.90;;;;;;4967151;28;20409;-73
2022/01/07 04:13:46;;;;;;;32.33;20.35;;;-1.60;99.90;;;;;;4972006;28;20113;-75
2022/01/07 04:16:12;;;;;;;35.65;20.85;;;-1.60;99.90;;;;;;4987431;28;20041;-75
2022/01/07 04:18:38;;;;;;;31.00;20.17;;;-1.60;99.90;;;;;;4977788;28;20026;-75
2022/01/07 04:21:04;;;;;;;32.95;20.95;;;-1.60;99.90;;;;;;4987411;28;20034;-74
2022/01/07 04:23:30;;;;;;;33.72;20.80;;;-1.60;99.90;;;;;;4982226;28;20423;-75
2022/01/07 04:25:56;;;;;;;34.88;21.15;;;-1.70;99.90;;;;;;4966785;28;20436;-75
2022/01/07 04:28:21;;;;;;;33.13;20.92;;;-1.70;99.90;;;;;;4988954;28;20073;-75
2022/01/07 04:30:47;;;;;;;32.85;21.42;;;-1.70;99.90;;;;;;4986977;28;20026;-75
2022/01/07 04:33:20;;;;;;;34.83;21.35;;;-1.70;99.90;;;;;;4964915;28;20045;-75
2022/01/07 04:35:46;;;;;;;35.67;22.10;;;-1.70;99.90;;;;;;4965895;28;20026;-74
2022/01/07 04:38:11;;;;;;;33.55;22.58;;;-1.70;99.90;;;;;;4971444;28;20093;-77
2022/01/07 04:40:37;;;;;;;35.45;22.80;;;-1.70;99.90;;;;;;4970179;28;20145;-76
2022/01/07 04:43:04;;;;;;;34.13;22.45;;;-1.70;99.90;;;;;;4966833;28;20029;-75
2022/01/07 04:45:30;;;;;;;38.60;22.02;;;-1.70;99.90;;;;;;4984490;28;20030;-76
2022/01/07 04:47:55;;;;;;;35.38;22.88;;;-1.60;99.90;;;;;;4977582;28;20060;-75
2022/01/07 04:50:22;;;;;;;39.28;22.67;;;-1.60;99.90;;;;;;4982893;28;20030;-76
2022/01/07 04:52:48;;;;;;;40.22;22.65;;;-1.70;99.90;;;;;;4988750;28;20445;-76
2022/01/07 04:55:26;;;;;;;33.25;22.02;;;-1.70;99.90;;;;;;4987825;28;20023;-75
2022/01/07 04:57:53;;;;;;;31.00;22.23;;;-1.60;99.90;;;;;;4965725;28;20038;-75
2022/01/07 05:00:21;;;;;;;30.80;21.70;;;-1.60;99.90;;;;;;4964331;28;20027;-75
2022/01/07 05:02:47;;;;;;;37.03;22.60;;;-1.60;99.90;;;;;;4970443;28;20484;-75
2022/01/07 05:05:13;;;;;;;31.17;21.88;;;-1.60;99.90;;;;;;4988689;28;20072;-76
2022/01/07 05:07:39;;;;;;;34.92;22.10;;;-1.60;99.90;;;;;;4965787;28;20073;-75
2022/01/07 05:10:08;;;;;;;37.90;22.77;;;-1.60;99.90;;;;;;4981863;28;20051;-76
2022/01/07 05:12:34;;;;;;;36.13;22.80;;;-1.60;99.90;;;;;;4986121;28;20093;-76
2022/01/07 05:14:59;;;;;;;34.67;22.98;;;-1.60;99.90;;;;;;4988319;28;20400;-75
2022/01/07 05:17:25;;;;;;;37.80;23.90;;;-1.60;99.90;;;;;;4965962;28;20026;-75
2022/01/07 05:19:50;;;;;;;37.08;23.02;;;-1.60;99.90;;;;;;4990009;28;20251;-76
2022/01/07 05:22:16;;;;;;;36.28;22.77;;;-1.70;99.90;;;;;;4986151;28;20038;-76
2022/01/07 05:24:42;;;;;;;34.90;23.50;;;-1.70;99.90;;;;;;4970311;28;20455;-76
2022/01/07 05:27:07;;;;;;;35.38;22.63;;;-1.70;99.90;;;;;;4982793;28;20080;-75
2022/01/07 05:29:35;;;;;;;35.97;23.85;;;-1.60;99.90;;;;;;4981368;28;20050;-76
2022/01/07 05:32:02;;;;;;;58.42;47.25;;;-1.70;99.90;;;;;;4968757;28;20027;-75
2022/01/07 05:34:28;;;;;;;40.78;26.90;;;-1.60;99.90;;;;;;4973070;28;20030;-75
2022/01/07 05:36:53;;;;;;;35.28;23.00;;;-1.70;99.90;;;;;;5005906;28;20030;-75
2022/01/07 05:39:19;;;;;;;31.23;21.60;;;-1.70;99.90;;;;;;4981280;28;20033;-76
2022/01/07 05:41:44;;;;;;;39.40;24.45;;;-1.70;99.90;;;;;;4969208;28;20114;-74
2022/01/07 05:44:10;;;;;;;33.17;21.60;;;-1.70;99.90;;;;;;4970694;28;20030;-75
2022/01/07 05:46:35;;;;;;;34.22;17.42;;;-1.70;99.90;;;;;;4976466;28;20034;-74
2022/01/07 05:49:01;;;;;;;35.22;21.80;;;-1.70;99.90;;;;;;4981050;28;20397;-75
2022/01/07 05:51:26;;;;;;;38.67;21.90;;;-1.70;99.90;;;;;;4968363;28;20058;-74
2022/01/07 05:53:52;;;;;;;38.05;25.70;;;-1.70;99.90;;;;;;4970164;28;20066;-76
2022/01/07 05:56:18;;;;;;;32.88;21.70;;;-1.80;99.90;;;;;;4974335;28;20038;-75
2022/01/07 05:58:43;;;;;;;33.28;20.67;;;-1.70;99.90;;;;;;4970084;28;20022;-76
2022/01/07 06:01:11;;;;;;;34.47;21.75;;;-1.70;99.90;;;;;;4964660;28;20496;-76
2022/01/07 06:03:37;;;;;;;32.28;20.98;;;-1.70;99.90;;;;;;4963238;28;20117;-76
2022/01/07 06:06:03;;;;;;;31.55;23.50;;;-1.70;99.90;;;;;;4975237;28;20049;-75
2022/01/07 06:08:28;;;;;;;32.55;22.10;;;-1.70;99.90;;;;;;4985455;28;20548;-76
2022/01/07 06:10:54;;;;;;;33.97;21.73;;;-1.70;99.90;;;;;;4987350;28;20031;-76
2022/01/07 06:13:20;;;;;;;33.42;22.45;;;-1.70;99.90;;;;;;4963151;28;20027;-76
2022/01/07 06:15:45;;;;;;;31.70;21.00;;;-1.80;99.90;;;;;;4967943;28;20074;-76
2022/01/07 06:18:11;;;;;;;32.85;23.15;;;-1.80;99.90;;;;;;4969710;28;20031;-76
2022/01/07 06:20:36;;;;;;;31.85;22.73;;;-1.80;99.90;;;;;;4964596;28;20392;-75
2022/01/07 06:23:02;;;;;;;34.22;24.88;;;-1.90;99.90;;;;;;4962952;28;20018;-76
2022/01/07 06:25:27;;;;;;;33.25;23.67;;;-1.90;99.90;;;;;;4968657;28;20074;-77
2022/01/07 06:27:53;;;;;;;30.05;21.20;;;-1.90;99.90;;;;;;4987184;28;20038;-77
2022/01/07 06:30:19;;;;;;;35.83;22.25;;;-1.90;99.90;;;;;;4964294;28;20022;-77
2022/01/07 06:32:44;;;;;;;30.00;21.45;;;-1.90;99.90;;;;;;4980954;28;20030;-76
2022/01/07 06:35:10;;;;;;;34.65;22.95;;;-1.90;99.90;;;;;;4987790;28;20027;-76
2022/01/07 06:37:36;;;;;;;33.22;22.15;;;-1.90;99.90;;;;;;4979763;28;20027;-76
2022/01/07 06:40:04;;;;;;;33.42;22.83;;;-1.90;99.90;;;;;;4968266;28;20034;-78
2022/01/07 06:42:30;;;;;;;33.03;22.48;;;-1.90;99.90;;;;;;4970174;28;20164;-77
2022/01/07 06:44:55;;;;;;;33.60;22.60;;;-1.90;99.90;;;;;;5010601;28;20112;-78
2022/01/07 06:47:21;;;;;;;32.95;21.63;;;-1.90;99.90;;;;;;4980136;28;20116;-77
2022/01/07 06:49:46;;;;;;;34.80;21.67;;;-1.90;99.90;;;;;;4972345;28;20025;-77
2022/01/07 06:52:12;;;;;;;34.20;21.27;;;-1.90;99.90;;;;;;4979644;28;20034;-77
2022/01/07 06:54:37;;;;;;;28.83;21.70;;;-1.90;99.90;;;;;;4981349;28;20109;-77
2022/01/07 06:57:03;;;;;;;29.15;21.73;;;-1.90;99.90;;;;;;4963273;28;20062;-76
2022/01/07 06:59:29;;;;;;;28.55;20.77;;;-1.90;99.90;;;;;;4967742;28;20037;-76
2022/01/07 07:01:54;;;;;;;34.25;22.85;;;-1.90;99.90;;;;;;4974125;28;20030;-76
2022/01/07 07:04:20;;;;;;;33.63;21.50;;;-1.90;99.90;;;;;;4974919;28;20058;-76
2022/01/07 07:06:45;;;;;;;36.45;22.50;;;-1.90;99.90;;;;;;4978850;28;20529;-76
2022/01/07 07:09:11;;;;;;;33.47;21.77;;;-1.90;99.90;;;;;;4968545;28;20485;-77
2022/01/07 07:11:39;;;;;;;31.25;20.50;;;-1.90;99.90;;;;;;4986456;28;20023;-77
2022/01/07 07:14:05;;;;;;;26.23;20.30;;;-1.90;99.90;;;;;;4962589;28;20026;-76
2022/01/07 07:16:30;;;;;;;30.83;21.52;;;-1.90;99.90;;;;;;4979251;28;20089;-76
2022/01/07 07:18:56;;;;;;;29.70;20.88;;;-1.90;99.90;;;;;;4992960;28;20034;-76
2022/01/07 07:21:21;;;;;;;33.03;21.25;;;-1.90;99.90;;;;;;4988422;28;20030;-77
2022/01/07 07:23:47;;;;;;;31.55;20.90;;;-1.90;99.90;;;;;;4986096;28;20089;-77
2022/01/07 07:26:13;;;;;;;34.65;20.95;;;-1.90;99.90;;;;;;4969148;28;20026;-77
2022/01/07 07:28:39;;;;;;;30.95;20.40;;;-1.80;99.90;;;;;;4979764;28;20029;-76
2022/01/07 07:31:09;;;;;;;33.45;22.67;;;-1.80;99.90;;;;;;4979504;28;20480;-76
2022/01/07 07:36:27;;;;;;;31.90;22.88;;;-1.80;99.90;;;;;;4985876;28;20022;-76
2022/01/07 07:38:57;;;;;;;32.08;22.40;;;-1.80;99.90;;;;;;4983575;28;20022;-76
2022/01/07 07:41:23;;;;;;;32.88;24.33;;;-1.70;99.90;;;;;;4975625;28;20026;-75
2022/01/07 07:43:49;;;;;;;59.28;35.83;;;-1.70;99.90;;;;;;4989552;28;20030;-76
2022/01/07 07:46:16;;;;;;;36.72;25.80;;;-1.70;99.90;;;;;;4974221;28;20026;-76
2022/01/07 07:48:42;;;;;;;40.97;28.40;;;-1.70;99.90;;;;;;4991590;28;20032;-76
2022/01/07 07:51:08;;;;;;;34.60;26.25;;;-1.70;99.90;;;;;;4991930;28;20133;-76
2022/01/07 07:53:33;;;;;;;53.90;39.03;;;-1.70;99.90;;;;;;4962536;28;20477;-76
2022/01/07 07:55:59;;;;;;;33.88;25.42;;;-1.80;99.90;;;;;;4967914;28;20085;-76
2022/01/07 07:58:27;;;;;;;32.20;24.83;;;-1.70;99.90;;;;;;4984579;28;20026;-76
2022/01/07 08:00:53;;;;;;;35.50;26.25;;;-1.70;99.90;;;;;;4978445;28;20053;-76
2022/01/07 08:03:21;;;;;;;34.40;26.73;;;-1.70;99.90;;;;;;4962238;28;20031;-76
2022/01/07 08:05:47;;;;;;;39.72;29.10;;;-1.70;99.90;;;;;;4985704;28;20027;-77
2022/01/07 08:08:13;;;;;;;39.38;27.80;;;-1.80;99.90;;;;;;4984804;28;20026;-76
2022/01/07 08:10:45;;;;;;;39.63;29.23;;;-1.80;99.90;;;;;;4970095;28;20053;-76
2022/01/07 08:18:23;;;;;;;41.05;29.70;;;-1.60;99.90;;;;;;4995452;28;20093;-75
2022/01/07 08:20:49;;;;;;;40.15;29.75;;;-1.60;99.90;;;;;;4986651;28;20053;-76
2022/01/07 08:23:15;;;;;;;42.65;30.45;;;-1.70;99.90;;;;;;4993533;28;20431;-74
2022/01/07 08:25:41;;;;;;;41.95;30.35;;;-1.60;99.90;;;;;;4985605;28;20031;-75
2022/01/07 08:28:07;;;;;;;45.35;31.15;;;-1.50;99.90;;;;;;4972377;28;20054;-75
2022/01/07 08:30:37;;;;;;;42.45;31.42;;;-1.50;99.90;;;;;;4977506;28;20030;-75
2022/01/07 08:35:48;;;;;;;37.67;26.17;;;-1.60;99.90;;;;;;4995028;28;20109;-75
2022/01/07 08:38:14;;;;;;;47.35;32.63;;;-1.50;99.90;;;;;;4975553;28;20120;-75
2022/01/07 08:40:40;;;;;;;43.20;31.23;;;-1.40;99.90;;;;;;5005836;28;20381;-75
2022/01/07 08:43:06;;;;;;;46.78;31.80;;;-1.40;99.90;;;;;;4994746;28;20689;-76
2022/01/07 08:45:32;;;;;;;51.00;33.03;;;-1.40;99.90;;;;;;4994809;28;20053;-75
2022/01/07 08:47:59;;;;;;;47.35;32.03;;;-1.30;99.90;;;;;;4977649;28;20052;-75
2022/01/07 08:50:24;;;;;;;45.85;32.47;;;-1.30;99.90;;;;;;4994919;28;20420;-76
2022/01/07 08:52:50;;;;;;;46.35;32.65;;;-1.20;99.90;;;;;;4993941;28;20021;-76
2022/01/07 08:55:16;;;;;;;47.13;32.92;;;-1.20;99.90;;;;;;4982863;28;20038;-76
2022/01/07 08:57:42;;;;;;;47.75;32.35;;;-1.20;99.90;;;;;;4992700;28;20038;-75
2022/01/07 09:00:08;;;;;;;44.92;31.85;;;-1.10;99.90;;;;;;5006677;28;20080;-75
2022/01/07 09:02:33;;;;;;;50.08;32.75;;;-1.10;99.90;;;;;;4995122;28;20034;-75
2022/01/07 09:04:59;;;;;;;47.47;33.53;;;-1.10;99.90;;;;;;4993382;28;20049;-76
2022/01/07 09:07:24;;;;;;;42.45;31.08;;;-1.10;99.90;;;;;;4978487;28;20018;-76
2022/01/07 09:09:50;;;;;;;42.50;30.67;;;-1.10;99.90;;;;;;4994439;28;20084;-76
2022/01/07 09:12:15;;;;;;;42.03;31.33;;;-1.00;99.90;;;;;;5008282;28;20054;-77
2022/01/07 09:14:41;;;;;;;42.13;29.67;;;-0.90;99.90;;;;;;4996352;28;20269;-77
2022/01/07 09:17:07;;;;;;;45.47;29.58;;;-0.90;99.90;;;;;;4994510;28;20045;-76
2022/01/07 09:19:33;;;;;;;42.13;28.70;;;-1.00;99.90;;;;;;4980699;28;20026;-75
2022/01/07 09:21:58;;;;;;;42.55;30.88;;;-1.00;99.90;;;;;;5001429;28;20038;-76
2022/01/07 09:24:29;;;;;;;41.25;29.38;;;-1.00;99.90;;;;;;4993821;28;20376;-76
2022/01/07 09:26:55;;;;;;;41.38;29.70;;;-0.90;99.90;;;;;;4996053;28;20570;-76
2022/01/07 09:29:23;;;;;;;38.67;29.75;;;-0.90;99.90;;;;;;4986999;28;20404;-77
2022/01/07 09:31:49;;;;;;;38.70;28.83;;;-0.90;99.90;;;;;;4989812;28;20050;-77
2022/01/07 09:34:15;;;;;;;44.55;29.88;;;-0.90;99.90;;;;;;4976740;28;20057;-77
2022/01/07 09:36:40;;;;;;;38.47;28.85;;;-0.80;99.90;;;;;;4990293;28;20037;-75
2022/01/07 09:39:06;;;;;;;41.33;31.08;;;-0.80;99.90;;;;;;4991497;28;20026;-75
2022/01/07 09:41:31;;;;;;;39.53;28.95;;;-0.70;99.90;;;;;;4976379;28;20435;-76
2022/01/07 09:43:57;;;;;;;37.65;27.45;;;-0.70;99.90;;;;;;4976793;28;20022;-77
2022/01/07 09:46:23;;;;;;;39.38;26.88;;;-0.60;99.90;;;;;;4976522;28;20022;-77
2022/01/07 09:48:49;;;;;;;38.35;28.65;;;-0.50;99.90;;;;;;4976462;28;20084;-76
2022/01/07 09:51:15;;;;;;;38.25;27.33;;;-0.50;99.90;;;;;;4976182;28;20046;-77
2022/01/07 09:53:41;;;;;;;35.80;26.48;;;-0.50;99.90;;;;;;4993610;28;20037;-77
2022/01/07 09:56:07;;;;;;;37.08;26.50;;;-0.30;99.90;;;;;;4993660;28;20018;-77
2022/01/07 09:58:33;;;;;;;35.72;25.08;;;-0.30;99.90;;;;;;4978800;28;20097;-76
2022/01/07 10:01:02;;;;;;;30.10;24.15;;;-0.20;99.90;;;;;;4967774;28;20025;-76
2022/01/07 10:03:40;;;;;;;32.65;24.90;;;-0.20;99.90;;;;;;4993082;28;20110;-76
2022/01/07 10:06:15;;;;;;;32.67;24.73;;;-0.20;99.90;;;;;;4967513;28;20789;-76
2022/01/07 10:08:41;;;;;;;33.90;24.75;;;-0.10;99.90;;;;;;5000656;28;20029;-75
2022/01/07 10:11:14;;;;;;;30.08;22.35;;;-0.10;99.90;;;;;;4993225;28;20031;-77
2022/01/07 10:13:42;;;;;;;32.58;24.40;;;0.00;99.90;;;;;;4989022;28;20081;-73
2022/01/07 10:16:19;;;;;;;30.23;23.35;;;0.00;99.90;;;;;;4992819;28;20042;-74
2022/01/07 10:18:47;;;;;;;34.97;23.77;;;0.00;99.90;;;;;;4993334;28;20022;-74
2022/01/07 10:21:13;;;;;;;34.67;25.45;;;0.10;99.90;;;;;;4993684;28;20030;-76
2022/01/07 10:23:39;;;;;;;30.80;22.17;;;0.20;99.90;;;;;;4990798;28;20027;-76
2022/01/07 10:26:12;;;;;;;31.27;22.45;;;0.20;99.90;;;;;;4975204;28;20025;-77
2022/01/07 10:28:37;;;;;;;30.20;23.50;;;0.20;99.90;;;;;;4989880;28;20033;-77
2022/01/07 10:31:03;;;;;;;31.77;23.15;;;0.20;99.90;;;;;;4991843;28;20482;-77
2022/01/07 10:33:30;;;;;;;32.83;23.55;;;0.20;99.90;;;;;;4993245;28;20540;-77
2022/01/07 10:36:05;;;;;;;31.55;23.83;;;0.20;99.90;;;;;;4994075;28;20022;-78
2022/01/07 10:38:31;;;;;;;31.55;23.52;;;0.20;99.90;;;;;;4986594;28;20098;-76
2022/01/07 10:41:00;;;;;;;34.40;25.13;;;0.20;99.90;;;;;;4986297;28;20560;-77
2022/01/07 10:43:32;;;;;;;32.65;22.92;;;0.20;99.90;;;;;;4983204;28;20022;-77
2022/01/07 10:46:15;;;;;;;31.30;22.80;;;0.10;99.90;;;;;;4992962;28;20066;-77
2022/01/07 10:48:53;;;;;;;31.35;24.00;;;0.20;99.90;;;;;;4992507;28;20758;-76
2022/01/07 10:51:27;;;;;;;30.70;23.05;;;0.10;99.90;;;;;;4979689;28;20052;-76
2022/01/07 10:54:01;;;;;;;29.10;22.85;;;0.20;99.90;;;;;;4992862;28;20076;-76
2022/01/07 10:56:44;;;;;;;29.85;22.40;;;0.20;99.90;;;;;;4992276;28;20073;-76
2022/01/07 10:59:18;;;;;;;28.98;22.55;;;0.10;99.90;;;;;;4973326;28;20564;-76
2022/01/07 11:01:45;;;;;;;28.95;22.65;;;0.20;99.90;;;;;;4962576;28;20027;-76
2022/01/07 11:04:16;;;;;;;33.50;24.90;;;0.20;99.90;;;;;;4980043;28;20022;-76
2022/01/07 11:06:43;;;;;;;30.88;23.08;;;0.30;99.90;;;;;;4992352;28;20472;-77
2022/01/07 11:09:10;;;;;;;31.83;23.38;;;0.30;99.90;;;;;;4985825;28;20014;-76
2022/01/07 11:12:05;;;;;;;29.75;23.05;;;0.30;99.90;;;;;;4992333;28;20022;-77
2022/01/07 11:14:34;;;;;;;27.55;22.50;;;0.40;99.90;;;;;;4973194;28;20030;-77
2022/01/07 11:17:06;;;;;;;28.70;22.92;;;0.40;99.90;;;;;;4987252;28;20022;-76
2022/01/07 11:19:37;;;;;;;31.73;21.98;;;0.40;99.90;;;;;;4992393;28;20026;-76
2022/01/07 11:22:04;;;;;;;28.35;21.17;;;0.30;99.90;;;;;;4974375;28;20022;-77
2022/01/07 11:24:44;;;;;;;29.02;21.92;;;0.30;99.90;;;;;;4992353;28;20038;-76
2022/01/07 11:27:15;;;;;;;28.92;22.00;;;0.50;99.90;;;;;;4985463;28;20030;-77
2022/01/07 11:30:04;;;;;;;29.65;21.77;;;0.30;99.90;;;;;;4998878;28;20381;-76
2022/01/07 11:32:35;;;;;;;26.63;20.73;;;0.30;99.90;;;;;;4996825;28;20547;-77
2022/01/07 11:35:19;;;;;;;27.63;21.30;;;0.30;99.90;;;;;;4984420;28;20109;-76
2022/01/07 11:37:52;;;;;;;27.95;21.20;;;0.30;99.90;;;;;;4982564;28;20030;-76
2022/01/07 11:40:33;;;;;;;31.23;23.70;;;0.20;99.90;;;;;;4995761;28;20101;-77
2022/01/07 11:43:24;;;;;;;30.02;21.92;;;0.10;99.90;;;;;;4975923;28;20027;-77
2022/01/07 11:45:49;;;;;;;29.83;21.92;;;0.10;99.90;;;;;;4993819;28;20085;-77
2022/01/07 11:48:17;;;;;;;32.88;24.05;;;0.10;99.90;;;;;;4997988;28;20039;-77
2022/01/07 11:50:48;;;;;;;33.15;23.83;;;0.10;99.90;;;;;;4976377;28;20030;-78
2022/01/07 11:53:14;;;;;;;33.78;23.67;;;0.20;99.90;;;;;;5001521;28;20028;-78
2022/01/07 11:55:41;;;;;;;32.70;23.42;;;0.10;99.90;;;;;;4982280;28;20080;-77
2022/01/07 11:58:09;;;;;;;35.30;24.13;;;0.10;99.90;;;;;;5006196;28;20034;-76
2022/01/07 12:01:01;;;;;;;33.95;24.52;;;0.10;99.90;;;;;;4995545;28;20489;-76
2022/01/07 12:03:32;;;;;;;35.53;24.67;;;0.20;99.90;;;;;;4977545;28;20105;-77
2022/01/07 12:05:58;;;;;;;36.72;27.05;;;0.10;99.90;;;;;;4986901;28;20025;-77
2022/01/07 12:08:40;;;;;;;35.65;25.02;;;0.10;99.90;;;;;;4986225;28;20057;-76
2022/01/07 12:11:10;;;;;;;36.35;26.40;;;0.10;99.90;;;;;;4963096;28;20018;-77
2022/01/07 12:13:39;;;;;;;41.53;27.67;;;0.10;99.90;;;;;;4974407;28;20131;-76
2022/01/07 12:16:08;;;;;;;38.50;26.80;;;0.10;99.90;;;;;;4996588;28;20088;-77
2022/01/07 12:18:35;;;;;;;42.75;30.50;;;0.10;99.90;;;;;;4989401;28;20025;-77
2022/01/07 12:21:01;;;;;;;45.90;28.92;;;0.00;99.90;;;;;;4973123;28;20492;-78
2022/01/07 12:23:27;;;;;;;50.13;32.63;;;0.10;99.90;;;;;;5002187;28;20052;-77
2022/01/07 12:25:55;;;;;;;46.58;29.48;;;0.10;99.90;;;;;;4985336;28;20030;-77
2022/01/07 12:28:24;;;;;;;45.00;29.77;;;0.10;99.90;;;;;;5006284;28;20547;-77
2022/01/07 12:30:51;;;;;;;42.25;27.90;;;0.10;99.90;;;;;;4996922;28;20014;-77
2022/01/07 12:33:17;;;;;;;41.28;27.67;;;0.10;99.90;;;;;;4979504;28;20034;-77
2022/01/07 12:35:43;;;;;;;41.38;29.05;;;0.10;99.90;;;;;;4978019;28;20034;-77
2022/01/07 12:38:17;;;;;;;43.72;27.92;;;0.10;99.90;;;;;;4995409;28;20033;-75